sensor_id;sensor_type;location;lat;lon;timestamp;P1;durP1;ratioP1;P2;durP2;ratioP2
27201;SDS011;14717;46.924;15.474;2023-05-18T00:02:06;0.55;;;0.47;;
27201;SDS011;14717;46.924;15.474;2023-05-18T00:04:32;1.30;;;0.60;;
27201;SDS011;14717;46.924;15.474;2023-05-18T00:07:02;1.20;;;0.60;;
27201;SDS011;14717;46.924;15.474;2023-05-18T00:09:29;0.77;;;0.60;;
27201;SDS011;14717;46.924;15.474;2023-05-18T00:11:56;0.50;;;0.47;;
27201;SDS011;14717;46.924;15.474;2023-05-18T00:14:24;0.30;;;0.30;;
27201;SDS011;14717;46.924;15.474;2023-05-18T00:16:50;0.50;;;0.30;;
27201;SDS011;14717;46.924;15.474;2023-05-18T00:19:19;0.52;;;0.47;;
27201;SDS011;14717;46.924;15.474;2023-05-18T00:21:45;0.57;;;0.35;;
27201;SDS011;14717;46.924;15.474;2023-05-18T00:24:12;1.50;;;0.60;;
27201;SDS011;14717;46.924;15.474;2023-05-18T00:26:39;0.75;;;0.55;;
27201;SDS011;14717;46.924;15.474;2023-05-18T00:29:06;0.82;;;0.70;;
27201;SDS011;14717;46.924;15.474;2023-05-18T00:31:32;0.75;;;0.50;;
27201;SDS011;14717;46.924;15.474;2023-05-18T00:34:03;0.57;;;0.50;;
27201;SDS011;14717;46.924;15.474;2023-05-18T00:36:35;1.13;;;0.73;;
27201;SDS011;14717;46.924;15.474;2023-05-18T00:39:02;0.45;;;0.40;;
27201;SDS011;14717;46.924;15.474;2023-05-18T00:41:28;0.52;;;0.50;;
27201;SDS011;14717;46.924;15.474;2023-05-18T00:43:55;1.20;;;0.60;;
27201;SDS011;14717;46.924;15.474;2023-05-18T00:46:24;0.88;;;0.70;;
27201;SDS011;14717;46.924;15.474;2023-05-18T00:48:52;0.50;;;0.50;;
27201;SDS011;14717;46.924;15.474;2023-05-18T00:51:19;0.45;;;0.38;;
27201;SDS011;14717;46.924;15.474;2023-05-18T00:53:47;1.10;;;0.63;;
27201;SDS011;14717;46.924;15.474;2023-05-18T00:58:39;1.20;;;0.60;;
27201;SDS011;14717;46.924;15.474;2023-05-18T01:01:06;1.83;;;0.70;;
27201;SDS011;14717;46.924;15.474;2023-05-18T01:03:33;0.73;;;0.57;;
27201;SDS011;14717;46.924;15.474;2023-05-18T01:06:06;1.25;;;0.77;;
27201;SDS011;14717;46.924;15.474;2023-05-18T01:08:33;0.85;;;0.50;;
27201;SDS011;14717;46.924;15.474;2023-05-18T01:11:20;0.88;;;0.77;;
27201;SDS011;14717;46.924;15.474;2023-05-18T01:14:05;1.50;;;0.65;;
27201;SDS011;14717;46.924;15.474;2023-05-18T01:19:10;1.25;;;0.60;;
27201;SDS011;14717;46.924;15.474;2023-05-18T01:21:51;1.27;;;0.80;;
27201;SDS011;14717;46.924;15.474;2023-05-18T01:26:55;0.70;;;0.70;;
27201;SDS011;14717;46.924;15.474;2023-05-18T01:29:24;1.25;;;1.00;;
27201;SDS011;14717;46.924;15.474;2023-05-18T01:31:51;2.55;;;0.80;;
27201;SDS011;14717;46.924;15.474;2023-05-18T01:34:16;0.57;;;0.50;;
27201;SDS011;14717;46.924;15.474;2023-05-18T01:36:42;1.02;;;0.77;;
27201;SDS011;14717;46.924;15.474;2023-05-18T01:39:07;1.95;;;0.90;;
27201;SDS011;14717;46.924;15.474;2023-05-18T01:49:37;0.77;;;0.63;;
27201;SDS011;14717;46.924;15.474;2023-05-18T01:52:10;0.90;;;0.60;;
27201;SDS011;14717;46.924;15.474;2023-05-18T01:54:44;0.80;;;0.70;;
27201;SDS011;14717;46.924;15.474;2023-05-18T01:57:14;1.02;;;0.70;;
27201;SDS011;14717;46.924;15.474;2023-05-18T01:59:40;1.92;;;0.80;;
27201;SDS011;14717;46.924;15.474;2023-05-18T02:02:07;0.85;;;0.68;;
27201;SDS011;14717;46.924;15.474;2023-05-18T02:04:32;2.42;;;0.85;;
27201;SDS011;14717;46.924;15.474;2023-05-18T02:06:59;0.77;;;0.65;;
27201;SDS011;14717;46.924;15.474;2023-05-18T02:09:24;1.25;;;0.80;;
27201;SDS011;14717;46.924;15.474;2023-05-18T02:11:50;0.70;;;0.60;;
27201;SDS011;14717;46.924;15.474;2023-05-18T02:14:15;1.83;;;0.80;;
27201;SDS011;14717;46.924;15.474;2023-05-18T02:16:41;1.80;;;0.80;;
27201;SDS011;14717;46.924;15.474;2023-05-18T02:19:06;1.38;;;0.82;;
27201;SDS011;14717;46.924;15.474;2023-05-18T02:21:31;1.80;;;0.90;;
27201;SDS011;14717;46.924;15.474;2023-05-18T02:23:59;1.67;;;0.75;;
27201;SDS011;14717;46.924;15.474;2023-05-18T02:26:24;2.75;;;1.00;;
27201;SDS011;14717;46.924;15.474;2023-05-18T02:28:50;1.35;;;0.82;;
27201;SDS011;14717;46.924;15.474;2023-05-18T02:31:15;2.35;;;0.90;;
27201;SDS011;14717;46.924;15.474;2023-05-18T02:33:41;2.15;;;0.93;;
27201;SDS011;14717;46.924;15.474;2023-05-18T02:36:07;1.42;;;0.80;;
27201;SDS011;14717;46.924;15.474;2023-05-18T02:38:41;1.50;;;0.90;;
27201;SDS011;14717;46.924;15.474;2023-05-18T02:41:08;1.77;;;1.00;;
27201;SDS011;14717;46.924;15.474;2023-05-18T02:43:34;1.13;;;0.80;;
27201;SDS011;14717;46.924;15.474;2023-05-18T02:48:25;1.58;;;1.08;;
27201;SDS011;14717;46.924;15.474;2023-05-18T02:50:51;1.63;;;0.95;;
27201;SDS011;14717;46.924;15.474;2023-05-18T02:53:17;2.13;;;1.10;;
27201;SDS011;14717;46.924;15.474;2023-05-18T02:55:42;1.55;;;0.90;;
27201;SDS011;14717;46.924;15.474;2023-05-18T02:58:08;1.50;;;1.00;;
27201;SDS011;14717;46.924;15.474;2023-05-18T03:00:33;2.10;;;1.13;;
27201;SDS011;14717;46.924;15.474;2023-05-18T03:02:59;2.63;;;1.23;;
27201;SDS011;14717;46.924;15.474;2023-05-18T03:05:25;1.08;;;0.90;;
27201;SDS011;14717;46.924;15.474;2023-05-18T03:07:51;1.83;;;1.17;;
27201;SDS011;14717;46.924;15.474;2023-05-18T03:10:18;1.90;;;1.10;;
27201;SDS011;14717;46.924;15.474;2023-05-18T03:12:44;2.83;;;1.33;;
27201;SDS011;14717;46.924;15.474;2023-05-18T03:15:10;2.08;;;0.88;;
27201;SDS011;14717;46.924;15.474;2023-05-18T03:17:35;1.73;;;1.10;;
27201;SDS011;14717;46.924;15.474;2023-05-18T03:20:01;2.72;;;1.30;;
27201;SDS011;14717;46.924;15.474;2023-05-18T03:22:27;2.60;;;1.27;;
27201;SDS011;14717;46.924;15.474;2023-05-18T03:24:52;1.92;;;1.17;;
27201;SDS011;14717;46.924;15.474;2023-05-18T03:27:19;2.13;;;1.10;;
27201;SDS011;14717;46.924;15.474;2023-05-18T03:29:49;2.50;;;1.63;;
27201;SDS011;14717;46.924;15.474;2023-05-18T03:32:17;2.65;;;1.23;;
27201;SDS011;14717;46.924;15.474;2023-05-18T03:34:43;2.55;;;1.25;;
27201;SDS011;14717;46.924;15.474;2023-05-18T03:37:09;3.53;;;1.50;;
27201;SDS011;14717;46.924;15.474;2023-05-18T03:39:34;4.93;;;1.52;;
27201;SDS011;14717;46.924;15.474;2023-05-18T03:42:00;4.13;;;1.50;;
27201;SDS011;14717;46.924;15.474;2023-05-18T03:44:25;3.10;;;1.48;;
27201;SDS011;14717;46.924;15.474;2023-05-18T03:46:51;3.42;;;1.60;;
27201;SDS011;14717;46.924;15.474;2023-05-18T03:49:17;3.58;;;1.60;;
27201;SDS011;14717;46.924;15.474;2023-05-18T03:51:42;2.90;;;1.40;;
27201;SDS011;14717;46.924;15.474;2023-05-18T03:54:07;2.67;;;1.40;;
27201;SDS011;14717;46.924;15.474;2023-05-18T03:56:33;2.92;;;1.40;;
27201;SDS011;14717;46.924;15.474;2023-05-18T03:58:58;3.00;;;1.70;;
27201;SDS011;14717;46.924;15.474;2023-05-18T04:01:24;2.85;;;1.38;;
27201;SDS011;14717;46.924;15.474;2023-05-18T04:03:50;2.85;;;1.42;;
27201;SDS011;14717;46.924;15.474;2023-05-18T04:06:15;3.72;;;1.50;;
27201;SDS011;14717;46.924;15.474;2023-05-18T04:08:41;3.63;;;1.60;;
27201;SDS011;14717;46.924;15.474;2023-05-18T04:11:07;4.22;;;1.77;;
27201;SDS011;14717;46.924;15.474;2023-05-18T04:13:33;2.47;;;1.40;;
27201;SDS011;14717;46.924;15.474;2023-05-18T04:16:01;3.25;;;1.58;;
27201;SDS011;14717;46.924;15.474;2023-05-18T04:18:27;4.53;;;1.75;;
27201;SDS011;14717;46.924;15.474;2023-05-18T04:20:54;4.07;;;1.50;;
27201;SDS011;14717;46.924;15.474;2023-05-18T04:23:20;2.67;;;1.55;;
27201;SDS011;14717;46.924;15.474;2023-05-18T04:25:45;2.83;;;1.33;;
27201;SDS011;14717;46.924;15.474;2023-05-18T04:28:11;3.67;;;1.50;;
27201;SDS011;14717;46.924;15.474;2023-05-18T04:30:36;3.38;;;1.52;;
27201;SDS011;14717;46.924;15.474;2023-05-18T04:33:02;4.20;;;1.77;;
27201;SDS011;14717;46.924;15.474;2023-05-18T04:35:28;3.17;;;1.83;;
27201;SDS011;14717;46.924;15.474;2023-05-18T04:37:55;3.47;;;1.50;;
27201;SDS011;14717;46.924;15.474;2023-05-18T04:40:21;3.03;;;1.27;;
27201;SDS011;14717;46.924;15.474;2023-05-18T04:42:46;2.28;;;1.23;;
27201;SDS011;14717;46.924;15.474;2023-05-18T04:45:12;4.22;;;1.63;;
27201;SDS011;14717;46.924;15.474;2023-05-18T04:47:39;2.95;;;1.48;;
27201;SDS011;14717;46.924;15.474;2023-05-18T04:50:05;3.40;;;1.65;;
27201;SDS011;14717;46.924;15.474;2023-05-18T04:52:31;4.63;;;1.70;;
27201;SDS011;14717;46.924;15.474;2023-05-18T04:55:01;3.70;;;1.63;;
27201;SDS011;14717;46.924;15.474;2023-05-18T04:57:27;2.47;;;1.30;;
27201;SDS011;14717;46.924;15.474;2023-05-18T04:59:52;3.60;;;1.52;;
27201;SDS011;14717;46.924;15.474;2023-05-18T05:02:18;3.35;;;1.52;;
27201;SDS011;14717;46.924;15.474;2023-05-18T05:04:44;3.05;;;1.42;;
27201;SDS011;14717;46.924;15.474;2023-05-18T05:07:09;2.40;;;1.40;;
27201;SDS011;14717;46.924;15.474;2023-05-18T05:09:35;2.58;;;1.65;;
27201;SDS011;14717;46.924;15.474;2023-05-18T05:12:00;2.70;;;1.42;;
27201;SDS011;14717;46.924;15.474;2023-05-18T05:14:26;2.97;;;1.23;;
27201;SDS011;14717;46.924;15.474;2023-05-18T05:16:51;3.70;;;1.50;;
27201;SDS011;14717;46.924;15.474;2023-05-18T05:19:16;2.75;;;1.38;;
27201;SDS011;14717;46.924;15.474;2023-05-18T05:21:42;2.40;;;1.40;;
27201;SDS011;14717;46.924;15.474;2023-05-18T05:24:07;3.70;;;1.80;;
27201;SDS011;14717;46.924;15.474;2023-05-18T05:26:33;4.50;;;1.40;;
27201;SDS011;14717;46.924;15.474;2023-05-18T05:31:24;3.90;;;1.35;;
27201;SDS011;14717;46.924;15.474;2023-05-18T05:33:49;2.60;;;1.50;;
27201;SDS011;14717;46.924;15.474;2023-05-18T05:36:15;3.20;;;1.38;;
27201;SDS011;14717;46.924;15.474;2023-05-18T05:38:40;5.25;;;1.30;;
27201;SDS011;14717;46.924;15.474;2023-05-18T05:41:06;2.72;;;1.38;;
27201;SDS011;14717;46.924;15.474;2023-05-18T05:43:31;2.70;;;1.52;;
27201;SDS011;14717;46.924;15.474;2023-05-18T05:45:57;4.97;;;1.60;;
27201;SDS011;14717;46.924;15.474;2023-05-18T05:48:22;3.30;;;1.45;;
27201;SDS011;14717;46.924;15.474;2023-05-18T05:50:47;4.00;;;1.70;;
27201;SDS011;14717;46.924;15.474;2023-05-18T05:53:13;4.60;;;2.10;;
27201;SDS011;14717;46.924;15.474;2023-05-18T05:55:41;5.10;;;2.45;;
27201;SDS011;14717;46.924;15.474;2023-05-18T05:58:07;3.03;;;1.80;;
27201;SDS011;14717;46.924;15.474;2023-05-18T06:00:33;3.17;;;1.70;;
27201;SDS011;14717;46.924;15.474;2023-05-18T06:02:59;2.33;;;1.52;;
27201;SDS011;14717;46.924;15.474;2023-05-18T06:05:24;3.97;;;2.08;;
27201;SDS011;14717;46.924;15.474;2023-05-18T06:07:50;3.80;;;2.00;;
27201;SDS011;14717;46.924;15.474;2023-05-18T06:10:15;3.95;;;1.40;;
27201;SDS011;14717;46.924;15.474;2023-05-18T06:12:40;5.90;;;1.70;;
27201;SDS011;14717;46.924;15.474;2023-05-18T06:15:06;2.83;;;1.52;;
27201;SDS011;14717;46.924;15.474;2023-05-18T06:17:32;3.63;;;1.40;;
27201;SDS011;14717;46.924;15.474;2023-05-18T06:19:57;3.58;;;1.92;;
27201;SDS011;14717;46.924;15.474;2023-05-18T06:22:23;3.53;;;1.50;;
27201;SDS011;14717;46.924;15.474;2023-05-18T06:24:49;4.82;;;1.73;;
27201;SDS011;14717;46.924;15.474;2023-05-18T06:27:14;2.50;;;1.50;;
27201;SDS011;14717;46.924;15.474;2023-05-18T06:32:06;3.33;;;1.60;;
27201;SDS011;14717;46.924;15.474;2023-05-18T06:34:31;2.05;;;1.60;;
27201;SDS011;14717;46.924;15.474;2023-05-18T06:36:57;2.30;;;1.30;;
27201;SDS011;14717;46.924;15.474;2023-05-18T06:39:23;2.67;;;1.30;;
27201;SDS011;14717;46.924;15.474;2023-05-18T06:41:48;3.97;;;1.58;;
27201;SDS011;14717;46.924;15.474;2023-05-18T06:44:16;2.47;;;1.48;;
27201;SDS011;14717;46.924;15.474;2023-05-18T06:46:41;3.22;;;1.52;;
27201;SDS011;14717;46.924;15.474;2023-05-18T06:49:07;2.38;;;1.20;;
27201;SDS011;14717;46.924;15.474;2023-05-18T06:51:32;2.83;;;1.60;;
27201;SDS011;14717;46.924;15.474;2023-05-18T06:53:58;2.75;;;1.40;;
27201;SDS011;14717;46.924;15.474;2023-05-18T06:56:23;2.33;;;1.50;;
27201;SDS011;14717;46.924;15.474;2023-05-18T06:58:48;2.90;;;1.60;;
27201;SDS011;14717;46.924;15.474;2023-05-18T07:03:39;2.15;;;1.33;;
27201;SDS011;14717;46.924;15.474;2023-05-18T07:06:05;3.47;;;1.55;;
27201;SDS011;14717;46.924;15.474;2023-05-18T07:08:30;2.50;;;1.30;;
27201;SDS011;14717;46.924;15.474;2023-05-18T07:10:56;2.42;;;1.27;;
27201;SDS011;14717;46.924;15.474;2023-05-18T07:13:23;3.15;;;1.70;;
27201;SDS011;14717;46.924;15.474;2023-05-18T07:15:49;2.50;;;1.40;;
27201;SDS011;14717;46.924;15.474;2023-05-18T07:18:15;2.75;;;1.30;;
27201;SDS011;14717;46.924;15.474;2023-05-18T07:20:40;3.00;;;1.48;;
27201;SDS011;14717;46.924;15.474;2023-05-18T07:25:31;2.40;;;1.23;;
27201;SDS011;14717;46.924;15.474;2023-05-18T07:27:56;2.33;;;1.10;;
27201;SDS011;14717;46.924;15.474;2023-05-18T07:30:22;2.25;;;1.30;;
27201;SDS011;14717;46.924;15.474;2023-05-18T07:32:48;3.10;;;1.30;;
27201;SDS011;14717;46.924;15.474;2023-05-18T07:35:13;2.95;;;1.20;;
27201;SDS011;14717;46.924;15.474;2023-05-18T07:37:40;2.60;;;1.45;;
27201;SDS011;14717;46.924;15.474;2023-05-18T07:42:33;2.35;;;1.40;;
27201;SDS011;14717;46.924;15.474;2023-05-18T07:47:24;2.23;;;1.27;;
27201;SDS011;14717;46.924;15.474;2023-05-18T07:52:15;3.00;;;1.50;;
27201;SDS011;14717;46.924;15.474;2023-05-18T07:57:06;1.88;;;1.17;;
27201;SDS011;14717;46.924;15.474;2023-05-18T07:59:31;1.45;;;0.90;;
27201;SDS011;14717;46.924;15.474;2023-05-18T08:01:57;1.42;;;0.98;;
27201;SDS011;14717;46.924;15.474;2023-05-18T08:04:23;2.13;;;1.15;;
27201;SDS011;14717;46.924;15.474;2023-05-18T08:09:20;1.88;;;1.20;;
27201;SDS011;14717;46.924;15.474;2023-05-18T08:11:48;2.95;;;1.20;;
27201;SDS011;14717;46.924;15.474;2023-05-18T08:14:15;1.27;;;0.98;;
27201;SDS011;14717;46.924;15.474;2023-05-18T08:19:05;3.03;;;1.40;;
27201;SDS011;14717;46.924;15.474;2023-05-18T08:23:57;2.88;;;1.10;;
27201;SDS011;14717;46.924;15.474;2023-05-18T08:28:48;1.98;;;1.05;;
27201;SDS011;14717;46.924;15.474;2023-05-18T08:33:39;2.17;;;1.13;;
27201;SDS011;14717;46.924;15.474;2023-05-18T08:38:31;2.20;;;1.30;;
27201;SDS011;14717;46.924;15.474;2023-05-18T08:43:23;2.57;;;1.40;;
27201;SDS011;14717;46.924;15.474;2023-05-18T08:46:03;3.10;;;1.35;;
27201;SDS011;14717;46.924;15.474;2023-05-18T08:48:45;2.53;;;1.30;;
27201;SDS011;14717;46.924;15.474;2023-05-18T08:51:11;1.88;;;1.13;;
27201;SDS011;14717;46.924;15.474;2023-05-18T08:53:39;3.08;;;1.30;;
27201;SDS011;14717;46.924;15.474;2023-05-18T08:58:34;2.20;;;1.10;;
27201;SDS011;14717;46.924;15.474;2023-05-18T09:01:01;2.60;;;1.40;;
27201;SDS011;14717;46.924;15.474;2023-05-18T09:03:28;2.60;;;1.20;;
27201;SDS011;14717;46.924;15.474;2023-05-18T09:05:54;2.53;;;1.20;;
27201;SDS011;14717;46.924;15.474;2023-05-18T09:08:21;3.08;;;1.60;;
27201;SDS011;14717;46.924;15.474;2023-05-18T09:10:47;2.22;;;1.25;;
27201;SDS011;14717;46.924;15.474;2023-05-18T09:13:15;2.90;;;1.33;;
27201;SDS011;14717;46.924;15.474;2023-05-18T09:15:44;2.88;;;1.10;;
27201;SDS011;14717;46.924;15.474;2023-05-18T09:20:36;2.67;;;1.15;;
27201;SDS011;14717;46.924;15.474;2023-05-18T09:25:27;2.07;;;1.00;;
27201;SDS011;14717;46.924;15.474;2023-05-18T09:27:56;3.47;;;1.13;;
27201;SDS011;14717;46.924;15.474;2023-05-18T09:32:48;1.90;;;1.30;;
27201;SDS011;14717;46.924;15.474;2023-05-18T09:37:43;2.83;;;1.10;;
27201;SDS011;14717;46.924;15.474;2023-05-18T09:40:09;1.50;;;0.95;;
27201;SDS011;14717;46.924;15.474;2023-05-18T09:42:35;1.50;;;0.98;;
27201;SDS011;14717;46.924;15.474;2023-05-18T09:47:50;1.95;;;0.90;;
27201;SDS011;14717;46.924;15.474;2023-05-18T09:50:23;1.75;;;1.10;;
27201;SDS011;14717;46.924;15.474;2023-05-18T09:52:50;4.55;;;1.27;;
27201;SDS011;14717;46.924;15.474;2023-05-18T09:55:19;1.63;;;1.02;;
27201;SDS011;14717;46.924;15.474;2023-05-18T09:57:45;2.08;;;1.15;;
27201;SDS011;14717;46.924;15.474;2023-05-18T10:00:13;1.73;;;1.00;;
27201;SDS011;14717;46.924;15.474;2023-05-18T10:05:06;2.22;;;1.08;;
27201;SDS011;14717;46.924;15.474;2023-05-18T10:10:09;4.00;;;1.00;;
27201;SDS011;14717;46.924;15.474;2023-05-18T10:12:37;1.58;;;1.02;;
27201;SDS011;14717;46.924;15.474;2023-05-18T10:15:07;1.35;;;1.00;;
27201;SDS011;14717;46.924;15.474;2023-05-18T10:17:33;1.95;;;1.15;;
27201;SDS011;14717;46.924;15.474;2023-05-18T10:20:01;3.92;;;1.30;;
27201;SDS011;14717;46.924;15.474;2023-05-18T10:22:33;1.85;;;0.90;;
27201;SDS011;14717;46.924;15.474;2023-05-18T10:25:00;2.13;;;0.95;;
27201;SDS011;14717;46.924;15.474;2023-05-18T10:27:28;2.45;;;1.10;;
27201;SDS011;14717;46.924;15.474;2023-05-18T10:29:57;1.42;;;1.00;;
27201;SDS011;14717;46.924;15.474;2023-05-18T10:32:23;3.08;;;0.85;;
27201;SDS011;14717;46.924;15.474;2023-05-18T10:34:51;1.92;;;1.08;;
27201;SDS011;14717;46.924;15.474;2023-05-18T10:37:16;1.83;;;1.05;;
27201;SDS011;14717;46.924;15.474;2023-05-18T10:39:43;2.95;;;1.10;;
27201;SDS011;14717;46.924;15.474;2023-05-18T10:42:13;2.63;;;0.90;;
27201;SDS011;14717;46.924;15.474;2023-05-18T10:44:41;1.80;;;0.90;;
27201;SDS011;14717;46.924;15.474;2023-05-18T10:47:08;1.52;;;1.05;;
27201;SDS011;14717;46.924;15.474;2023-05-18T10:49:35;1.20;;;0.80;;
27201;SDS011;14717;46.924;15.474;2023-05-18T10:52:01;1.85;;;0.82;;
27201;SDS011;14717;46.924;15.474;2023-05-18T10:54:27;2.65;;;1.00;;
27201;SDS011;14717;46.924;15.474;2023-05-18T10:56:54;1.10;;;0.88;;
27201;SDS011;14717;46.924;15.474;2023-05-18T10:59:20;2.28;;;1.00;;
27201;SDS011;14717;46.924;15.474;2023-05-18T11:01:50;2.28;;;0.90;;
27201;SDS011;14717;46.924;15.474;2023-05-18T11:04:24;2.42;;;1.10;;
27201;SDS011;14717;46.924;15.474;2023-05-18T11:06:56;1.45;;;1.00;;
27201;SDS011;14717;46.924;15.474;2023-05-18T11:09:23;1.30;;;1.00;;
27201;SDS011;14717;46.924;15.474;2023-05-18T11:11:56;2.33;;;0.90;;
27201;SDS011;14717;46.924;15.474;2023-05-18T11:14:26;1.20;;;0.90;;
27201;SDS011;14717;46.924;15.474;2023-05-18T11:20:08;1.55;;;0.90;;
27201;SDS011;14717;46.924;15.474;2023-05-18T11:22:38;2.08;;;1.27;;
27201;SDS011;14717;46.924;15.474;2023-05-18T11:25:52;1.63;;;1.05;;
27201;SDS011;14717;46.924;15.474;2023-05-18T11:28:02;1.27;;;0.90;;
27201;SDS011;14717;46.924;15.474;2023-05-18T11:30:43;1.80;;;1.10;;
27201;SDS011;14717;46.924;15.474;2023-05-18T11:33:26;2.05;;;1.20;;
27201;SDS011;14717;46.924;15.474;2023-05-18T11:36:09;1.52;;;1.05;;
27201;SDS011;14717;46.924;15.474;2023-05-18T11:41:48;2.42;;;1.20;;
27201;SDS011;14717;46.924;15.474;2023-05-18T11:44:27;2.00;;;1.10;;
27201;SDS011;14717;46.924;15.474;2023-05-18T11:49:19;2.20;;;1.00;;
27201;SDS011;14717;46.924;15.474;2023-05-18T11:51:53;1.52;;;1.10;;
27201;SDS011;14717;46.924;15.474;2023-05-18T11:54:40;2.05;;;1.10;;
27201;SDS011;14717;46.924;15.474;2023-05-18T11:57:08;3.25;;;1.20;;
27201;SDS011;14717;46.924;15.474;2023-05-18T11:59:44;1.85;;;1.00;;
27201;SDS011;14717;46.924;15.474;2023-05-18T12:02:22;1.92;;;1.10;;
27201;SDS011;14717;46.924;15.474;2023-05-18T12:04:51;2.15;;;1.35;;
27201;SDS011;14717;46.924;15.474;2023-05-18T12:07:18;2.03;;;1.20;;
27201;SDS011;14717;46.924;15.474;2023-05-18T12:10:05;1.77;;;1.00;;
27201;SDS011;14717;46.924;15.474;2023-05-18T12:12:33;2.38;;;1.00;;
27201;SDS011;14717;46.924;15.474;2023-05-18T12:14:59;1.45;;;0.90;;
27201;SDS011;14717;46.924;15.474;2023-05-18T12:17:45;3.13;;;1.25;;
27201;SDS011;14717;46.924;15.474;2023-05-18T12:20:13;3.03;;;1.15;;
27201;SDS011;14717;46.924;15.474;2023-05-18T12:22:41;2.70;;;1.17;;
27201;SDS011;14717;46.924;15.474;2023-05-18T12:25:08;2.20;;;1.10;;
27201;SDS011;14717;46.924;15.474;2023-05-18T12:27:42;2.30;;;1.20;;
27201;SDS011;14717;46.924;15.474;2023-05-18T12:30:12;1.42;;;1.10;;
27201;SDS011;14717;46.924;15.474;2023-05-18T12:32:51;2.33;;;1.13;;
27201;SDS011;14717;46.924;15.474;2023-05-18T12:35:21;1.30;;;1.00;;
27201;SDS011;14717;46.924;15.474;2023-05-18T12:37:47;2.70;;;1.20;;
27201;SDS011;14717;46.924;15.474;2023-05-18T12:40:16;1.70;;;1.13;;
27201;SDS011;14717;46.924;15.474;2023-05-18T12:42:52;1.98;;;1.15;;
27201;SDS011;14717;46.924;15.474;2023-05-18T12:45:21;2.42;;;1.25;;
27201;SDS011;14717;46.924;15.474;2023-05-18T12:47:47;2.28;;;1.45;;
27201;SDS011;14717;46.924;15.474;2023-05-18T12:50:18;2.38;;;1.20;;
27201;SDS011;14717;46.924;15.474;2023-05-18T12:52:44;2.50;;;1.15;;
27201;SDS011;14717;46.924;15.474;2023-05-18T12:55:09;2.33;;;1.20;;
27201;SDS011;14717;46.924;15.474;2023-05-18T12:57:41;2.28;;;1.30;;
27201;SDS011;14717;46.924;15.474;2023-05-18T13:00:07;1.80;;;1.23;;
27201;SDS011;14717;46.924;15.474;2023-05-18T13:02:36;2.33;;;1.60;;
27201;SDS011;14717;46.924;15.474;2023-05-18T13:05:06;2.78;;;1.48;;
27201;SDS011;14717;46.924;15.474;2023-05-18T13:07:37;4.80;;;2.40;;
27201;SDS011;14717;46.924;15.474;2023-05-18T13:10:05;2.58;;;1.63;;
27201;SDS011;14717;46.924;15.474;2023-05-18T13:12:38;3.63;;;1.70;;
27201;SDS011;14717;46.924;15.474;2023-05-18T13:17:38;3.90;;;1.80;;
27201;SDS011;14717;46.924;15.474;2023-05-18T13:20:11;3.40;;;1.95;;
27201;SDS011;14717;46.924;15.474;2023-05-18T13:22:37;3.88;;;1.70;;
27201;SDS011;14717;46.924;15.474;2023-05-18T13:25:02;3.80;;;1.95;;
27201;SDS011;14717;46.924;15.474;2023-05-18T13:27:29;3.47;;;1.90;;
27201;SDS011;14717;46.924;15.474;2023-05-18T13:29:54;3.30;;;1.92;;
27201;SDS011;14717;46.924;15.474;2023-05-18T13:32:22;3.72;;;2.13;;
27201;SDS011;14717;46.924;15.474;2023-05-18T13:34:48;5.47;;;2.25;;
27201;SDS011;14717;46.924;15.474;2023-05-18T13:37:13;3.90;;;2.30;;
27201;SDS011;14717;46.924;15.474;2023-05-18T13:39:39;8.93;;;2.60;;
27201;SDS011;14717;46.924;15.474;2023-05-18T13:42:05;8.27;;;2.75;;
27201;SDS011;14717;46.924;15.474;2023-05-18T13:44:32;5.32;;;2.60;;
27201;SDS011;14717;46.924;15.474;2023-05-18T13:46:57;5.03;;;2.63;;
27201;SDS011;14717;46.924;15.474;2023-05-18T13:49:23;7.15;;;3.17;;
27201;SDS011;14717;46.924;15.474;2023-05-18T13:51:48;6.72;;;2.83;;
27201;SDS011;14717;46.924;15.474;2023-05-18T13:54:14;5.00;;;2.80;;
27201;SDS011;14717;46.924;15.474;2023-05-18T13:56:39;4.18;;;2.70;;
27201;SDS011;14717;46.924;15.474;2023-05-18T13:59:04;6.03;;;2.88;;
27201;SDS011;14717;46.924;15.474;2023-05-18T14:01:30;6.68;;;2.92;;
27201;SDS011;14717;46.924;15.474;2023-05-18T14:03:56;5.47;;;2.67;;
27201;SDS011;14717;46.924;15.474;2023-05-18T14:06:22;4.55;;;2.53;;
27201;SDS011;14717;46.924;15.474;2023-05-18T14:08:48;7.18;;;3.47;;
27201;SDS011;14717;46.924;15.474;2023-05-18T14:11:13;4.90;;;2.80;;
27201;SDS011;14717;46.924;15.474;2023-05-18T14:13:39;4.65;;;2.53;;
27201;SDS011;14717;46.924;15.474;2023-05-18T14:16:04;5.30;;;2.80;;
27201;SDS011;14717;46.924;15.474;2023-05-18T14:18:30;5.13;;;2.90;;
27201;SDS011;14717;46.924;15.474;2023-05-18T14:20:56;6.10;;;3.00;;
27201;SDS011;14717;46.924;15.474;2023-05-18T14:23:26;5.68;;;2.85;;
27201;SDS011;14717;46.924;15.474;2023-05-18T14:25:52;4.50;;;2.70;;
27201;SDS011;14717;46.924;15.474;2023-05-18T14:28:17;4.85;;;2.70;;
27201;SDS011;14717;46.924;15.474;2023-05-18T14:30:43;5.65;;;2.80;;
27201;SDS011;14717;46.924;15.474;2023-05-18T14:33:08;4.88;;;2.55;;
27201;SDS011;14717;46.924;15.474;2023-05-18T14:35:33;6.35;;;2.70;;
27201;SDS011;14717;46.924;15.474;2023-05-18T14:37:59;4.53;;;2.42;;
27201;SDS011;14717;46.924;15.474;2023-05-18T14:40:24;5.65;;;2.50;;
27201;SDS011;14717;46.924;15.474;2023-05-18T14:42:50;5.03;;;2.97;;
27201;SDS011;14717;46.924;15.474;2023-05-18T14:45:15;4.85;;;2.63;;
27201;SDS011;14717;46.924;15.474;2023-05-18T14:47:41;4.25;;;2.40;;
27201;SDS011;14717;46.924;15.474;2023-05-18T14:50:07;4.53;;;2.58;;
27201;SDS011;14717;46.924;15.474;2023-05-18T14:52:32;5.45;;;2.53;;
27201;SDS011;14717;46.924;15.474;2023-05-18T14:54:58;5.15;;;2.38;;
27201;SDS011;14717;46.924;15.474;2023-05-18T14:57:23;5.30;;;2.70;;
27201;SDS011;14717;46.924;15.474;2023-05-18T14:59:48;4.22;;;2.40;;
27201;SDS011;14717;46.924;15.474;2023-05-18T15:02:14;4.95;;;2.40;;
27201;SDS011;14717;46.924;15.474;2023-05-18T15:04:40;4.47;;;2.15;;
27201;SDS011;14717;46.924;15.474;2023-05-18T15:07:05;7.43;;;2.53;;
27201;SDS011;14717;46.924;15.474;2023-05-18T15:09:31;4.57;;;2.38;;
27201;SDS011;14717;46.924;15.474;2023-05-18T15:11:56;4.15;;;2.40;;
27201;SDS011;14717;46.924;15.474;2023-05-18T15:14:22;5.53;;;2.40;;
27201;SDS011;14717;46.924;15.474;2023-05-18T15:16:47;5.53;;;2.47;;
27201;SDS011;14717;46.924;15.474;2023-05-18T15:19:13;5.40;;;3.63;;
27201;SDS011;14717;46.924;15.474;2023-05-18T15:21:38;5.28;;;3.03;;
27201;SDS011;14717;46.924;15.474;2023-05-18T15:24:04;5.78;;;3.28;;
27201;SDS011;14717;46.924;15.474;2023-05-18T15:26:29;6.00;;;2.83;;
27201;SDS011;14717;46.924;15.474;2023-05-18T15:28:55;4.70;;;2.72;;
27201;SDS011;14717;46.924;15.474;2023-05-18T15:31:21;5.72;;;2.80;;
27201;SDS011;14717;46.924;15.474;2023-05-18T15:33:46;4.65;;;2.40;;
27201;SDS011;14717;46.924;15.474;2023-05-18T15:36:11;4.35;;;2.60;;
27201;SDS011;14717;46.924;15.474;2023-05-18T15:38:37;5.60;;;2.80;;
27201;SDS011;14717;46.924;15.474;2023-05-18T15:41:02;6.00;;;3.00;;
27201;SDS011;14717;46.924;15.474;2023-05-18T15:43:28;5.95;;;3.20;;
27201;SDS011;14717;46.924;15.474;2023-05-18T15:45:54;6.18;;;3.42;;
27201;SDS011;14717;46.924;15.474;2023-05-18T15:48:19;9.52;;;3.25;;
27201;SDS011;14717;46.924;15.474;2023-05-18T15:50:45;5.53;;;3.45;;
27201;SDS011;14717;46.924;15.474;2023-05-18T15:53:10;9.27;;;3.70;;
27201;SDS011;14717;46.924;15.474;2023-05-18T15:55:36;5.90;;;3.25;;
27201;SDS011;14717;46.924;15.474;2023-05-18T15:58:02;7.85;;;3.38;;
27201;SDS011;14717;46.924;15.474;2023-05-18T16:00:27;6.13;;;3.58;;